createdAt,value
2019-05-14T00:01:03.733Z,2.10
2019-05-14T00:03:34.702Z,2.00
2019-05-14T00:06:07.764Z,2.20
2019-05-14T00:08:38.530Z,1.97
2019-05-14T00:11:09.572Z,2.07
2019-05-14T00:13:41.292Z,2.30
2019-05-14T00:16:12.418Z,2.10
2019-05-14T00:18:43.441Z,2.20
2019-05-14T00:21:14.685Z,2.10
2019-05-14T00:23:45.705Z,1.80
2019-05-14T00:26:16.477Z,1.90
2019-05-14T00:28:47.517Z,2.13
2019-05-14T00:31:21.185Z,1.80
2019-05-14T00:33:51.689Z,2.03
2019-05-14T00:36:22.583Z,2.03
2019-05-14T00:38:53.358Z,1.90
2019-05-14T00:41:24.099Z,2.00
2019-05-14T00:43:55.151Z,2.00
2019-05-14T00:46:25.869Z,1.80
2019-05-14T00:48:56.594Z,2.00
2019-05-14T00:51:27.844Z,2.20
2019-05-14T00:53:58.859Z,2.17
2019-05-14T00:56:32.122Z,2.10
2019-05-14T00:59:02.930Z,2.07
2019-05-14T01:01:34.173Z,1.93
2019-05-14T01:04:05.231Z,2.10
2019-05-14T01:06:36.343Z,2.23
2019-05-14T01:09:07.317Z,1.90
2019-05-14T01:11:38.302Z,1.90
2019-05-14T01:14:09.361Z,2.20
2019-05-14T01:16:42.251Z,2.10
2019-05-14T01:19:13.006Z,2.07
2019-05-14T01:21:43.900Z,2.10
2019-05-14T01:24:14.935Z,2.07
2019-05-14T01:26:45.988Z,2.07
2019-05-14T01:29:18.155Z,2.03
2019-05-14T01:31:49.140Z,1.87
2019-05-14T01:34:21.600Z,2.10
2019-05-14T01:36:53.045Z,2.20
2019-05-14T01:39:23.967Z,2.20
2019-05-14T01:41:54.921Z,2.20
2019-05-14T01:44:25.668Z,2.00
2019-05-14T01:46:56.411Z,2.23
2019-05-14T01:49:28.224Z,2.20
2019-05-14T01:51:59.034Z,2.27
2019-05-14T01:54:31.701Z,2.03
2019-05-14T01:57:02.606Z,2.10
2019-05-14T01:59:33.731Z,2.10
2019-05-14T02:02:04.945Z,2.20
2019-05-14T02:04:35.908Z,2.10
2019-05-14T02:07:07.263Z,2.20
2019-05-14T02:09:38.343Z,2.17
2019-05-14T02:12:11.451Z,2.20
2019-05-14T02:14:42.528Z,2.30
2019-05-14T02:17:13.583Z,2.53
2019-05-14T02:19:44.561Z,2.10
2019-05-14T02:22:15.791Z,2.07
2019-05-14T02:24:46.736Z,2.07
2019-05-14T02:27:17.472Z,2.20
2019-05-14T02:29:48.216Z,2.13
2019-05-14T02:32:19.493Z,2.30
2019-05-14T02:34:50.433Z,2.20
2019-05-14T02:37:21.226Z,2.40
2019-05-14T02:39:52.180Z,2.50
2019-05-14T02:42:22.909Z,2.40
2019-05-14T02:44:53.715Z,2.30
2019-05-14T02:47:24.696Z,2.40
2019-05-14T02:49:58.772Z,2.20
2019-05-14T02:52:29.202Z,2.20
2019-05-14T02:55:01.248Z,2.20
2019-05-14T02:57:32.486Z,2.27
2019-05-14T03:00:03.304Z,2.17
2019-05-14T03:02:34.292Z,2.23
2019-05-14T03:05:05.972Z,2.23
2019-05-14T03:07:39.401Z,2.40
2019-05-14T03:10:10.415Z,2.30
2019-05-14T03:12:41.736Z,2.07
2019-05-14T03:15:13.052Z,2.10
2019-05-14T03:17:43.857Z,2.17
2019-05-14T03:20:14.689Z,2.40
2019-05-14T03:23:01.388Z,2.50
2019-05-14T03:25:19.348Z,2.80
2019-05-14T03:27:50.541Z,2.30
2019-05-14T03:30:23.239Z,2.50
2019-05-14T03:32:54.309Z,2.50
2019-05-14T03:35:35.346Z,2.70
2019-05-14T03:38:00.445Z,2.47
2019-05-14T03:40:30.192Z,2.47
2019-05-14T03:43:01.245Z,2.60
2019-05-14T03:45:32.050Z,2.40
2019-05-14T03:48:03.102Z,2.40
2019-05-14T03:50:33.911Z,2.50
2019-05-14T03:53:04.656Z,2.90
2019-05-14T03:55:35.499Z,2.70
2019-05-14T03:58:09.684Z,2.70
2019-05-14T04:00:50.851Z,2.70
2019-05-14T04:03:22.306Z,2.70
2019-05-14T04:05:54.723Z,2.70
2019-05-14T04:08:29.330Z,2.80
2019-05-14T04:11:00.778Z,2.80
2019-05-14T04:13:33.125Z,2.80
2019-05-14T04:16:04.849Z,2.60
2019-05-14T04:18:40.293Z,2.67
2019-05-14T04:21:10.469Z,2.70
2019-05-14T04:23:45.127Z,2.40
2019-05-14T04:26:19.999Z,2.43
2019-05-14T04:28:51.566Z,2.40
2019-05-14T04:31:22.427Z,2.50
2019-05-14T04:33:54.703Z,2.50
2019-05-14T04:36:25.434Z,2.43
2019-05-14T04:39:00.306Z,2.70
2019-05-14T04:41:30.031Z,2.70
2019-05-14T04:44:00.898Z,2.70
2019-05-14T04:46:32.137Z,2.90
2019-05-14T04:49:03.232Z,3.00
2019-05-14T04:51:34.264Z,2.97
2019-05-14T04:54:09.180Z,2.67
2019-05-14T04:56:39.995Z,2.40
2019-05-14T04:59:11.037Z,2.83
2019-05-14T05:01:41.768Z,2.90
2019-05-14T05:04:13.117Z,2.73
2019-05-14T05:06:44.312Z,2.87
2019-05-14T05:09:15.309Z,2.67
2019-05-14T05:11:49.535Z,2.70
2019-05-14T05:14:23.163Z,2.80
2019-05-14T05:16:52.421Z,2.83
2019-05-14T05:19:23.868Z,2.83
2019-05-14T05:21:54.983Z,2.50
2019-05-14T05:24:28.725Z,2.43
2019-05-14T05:26:59.876Z,2.20
2019-05-14T05:29:30.894Z,2.30
2019-05-14T05:32:02.264Z,2.30
2019-05-14T05:34:33.282Z,2.60
2019-05-14T05:37:04.336Z,2.20
2019-05-14T05:39:35.072Z,2.20
2019-05-14T05:42:06.106Z,2.03
2019-05-14T05:44:39.124Z,2.00
2019-05-14T05:47:09.500Z,2.07
2019-05-14T05:49:40.642Z,2.30
2019-05-14T05:52:11.664Z,2.17
2019-05-14T05:54:42.888Z,2.30
2019-05-14T05:57:13.621Z,2.13
2019-05-14T05:59:44.380Z,2.40
2019-05-14T06:02:18.388Z,2.40
2019-05-14T06:04:48.927Z,2.37
2019-05-14T06:07:20.604Z,2.50
2019-05-14T06:09:51.607Z,2.30
2019-05-14T06:12:22.357Z,2.40
2019-05-14T06:14:53.408Z,2.40
2019-05-14T06:17:28.522Z,2.80
2019-05-14T06:19:59.559Z,2.37
2019-05-14T06:22:31.314Z,2.50
2019-05-14T06:25:20.446Z,2.47
2019-05-14T06:27:49.440Z,2.63
2019-05-14T06:30:32.041Z,2.30
2019-05-14T06:33:03.305Z,2.40
2019-05-14T06:35:35.612Z,2.70
2019-05-14T06:38:08.745Z,2.43
2019-05-14T06:40:39.649Z,2.47
2019-05-14T06:43:10.698Z,2.70
2019-05-14T06:45:41.688Z,2.50
2019-05-14T06:48:27.060Z,2.43
2019-05-14T06:50:45.186Z,2.43
2019-05-14T06:53:16.365Z,2.60
2019-05-14T06:55:48.421Z,2.47
2019-05-14T06:58:20.284Z,2.40
2019-05-14T07:00:51.218Z,2.57
2019-05-14T07:03:22.424Z,2.70
2019-05-14T07:05:53.446Z,2.40
2019-05-14T07:08:24.276Z,2.70
2019-05-14T07:10:55.101Z,2.40
2019-05-14T07:13:26.258Z,2.50
2019-05-14T07:15:58.445Z,2.60
2019-05-14T07:18:45.212Z,2.47
2019-05-14T07:21:02.296Z,2.30
2019-05-14T07:23:33.027Z,2.33
2019-05-14T07:26:03.776Z,2.30
2019-05-14T07:28:34.526Z,2.40
2019-05-14T07:31:05.325Z,2.70
2019-05-14T07:33:38.490Z,2.50
2019-05-14T07:36:08.933Z,2.60
2019-05-14T07:38:39.991Z,2.83
2019-05-14T07:41:11.280Z,2.33
2019-05-14T07:43:42.261Z,2.70
2019-05-14T07:46:13.019Z,2.93
2019-05-14T07:48:44.236Z,2.80
2019-05-14T07:51:15.250Z,2.70
2019-05-14T07:53:48.538Z,2.73
2019-05-14T07:56:19.064Z,2.97
2019-05-14T07:58:51.194Z,2.70
2019-05-14T08:01:22.269Z,2.93
2019-05-14T08:03:53.539Z,3.37
2019-05-14T08:06:24.510Z,3.10
2019-05-14T08:08:55.631Z,3.00
2019-05-14T08:11:28.086Z,3.10
2019-05-14T08:13:58.846Z,3.37
2019-05-14T08:16:29.872Z,3.00
2019-05-14T08:19:04.818Z,2.87
2019-05-14T08:21:34.023Z,2.80
2019-05-14T08:24:05.171Z,2.90
2019-05-14T08:26:38.045Z,3.20
2019-05-14T08:29:10.060Z,3.07
2019-05-14T08:31:40.987Z,2.90
2019-05-14T08:34:11.831Z,2.70
2019-05-14T08:36:42.658Z,2.70
2019-05-14T08:39:13.488Z,2.80
2019-05-14T08:41:44.314Z,2.63
2019-05-14T08:44:15.285Z,2.73
2019-05-14T08:46:48.646Z,2.83
2019-05-14T08:49:19.633Z,2.90
2019-05-14T08:51:50.373Z,2.80
2019-05-14T08:54:21.213Z,2.83
2019-05-14T08:56:52.113Z,2.90
2019-05-14T08:59:23.038Z,3.00
2019-05-14T09:02:01.751Z,3.13
2019-05-14T09:04:29.698Z,2.67
2019-05-14T09:06:59.126Z,2.97
2019-05-14T09:09:30.185Z,2.80
2019-05-14T09:12:01.163Z,3.10
2019-05-14T09:14:33.348Z,2.70
2019-05-14T09:17:05.724Z,2.50
2019-05-14T09:19:39.162Z,2.80
2019-05-14T09:22:09.789Z,2.80
2019-05-14T09:24:40.922Z,3.00
2019-05-14T09:27:11.753Z,2.80
2019-05-14T09:29:43.049Z,3.23
2019-05-14T09:32:13.823Z,3.33
2019-05-14T09:34:44.790Z,3.20
2019-05-14T09:37:19.303Z,3.00
2019-05-14T09:39:59.611Z,2.83
2019-05-14T09:42:33.725Z,2.53
2019-05-14T09:45:10.525Z,3.00
2019-05-14T09:47:43.490Z,3.10
2019-05-14T09:50:22.771Z,3.03
2019-05-14T09:52:56.330Z,3.23
2019-05-14T09:55:29.886Z,3.20
2019-05-14T09:58:05.225Z,2.87
2019-05-14T10:00:38.769Z,3.03
2019-05-14T10:03:09.851Z,2.70
2019-05-14T10:05:41.143Z,2.70
2019-05-14T10:08:11.910Z,2.77
2019-05-14T10:10:43.114Z,2.67
2019-05-14T10:13:13.964Z,2.77
2019-05-14T10:15:44.962Z,2.80
2019-05-14T10:18:16.295Z,3.00
2019-05-14T10:20:49.346Z,3.10
2019-05-14T10:23:20.126Z,3.10
2019-05-14T10:25:51.036Z,2.90
2019-05-14T10:28:21.801Z,3.00
2019-05-14T10:30:53.099Z,2.60
2019-05-14T10:33:24.277Z,2.80
2019-05-14T10:35:55.329Z,2.60
2019-05-14T10:50:04.313Z,2.70
2019-05-14T10:52:35.401Z,2.67
2019-05-14T10:55:08.053Z,2.80
2019-05-14T10:57:38.909Z,2.90
2019-05-14T11:00:09.930Z,2.60
2019-05-14T11:02:41.317Z,2.57
2019-05-14T11:05:12.203Z,2.30
2019-05-14T11:07:43.086Z,2.30
2019-05-14T11:10:14.274Z,2.60
2019-05-14T11:35:19.154Z,2.40
2019-05-14T11:37:50.265Z,2.30
2019-05-14T11:40:21.333Z,2.47
2019-05-14T11:42:52.857Z,2.47
2019-05-14T11:45:24.004Z,2.30
2019-05-14T11:47:55.066Z,2.40
2019-05-14T11:50:28.468Z,2.30
2019-05-14T11:52:58.721Z,2.30
2019-05-14T11:55:29.533Z,2.20
2019-05-14T11:58:00.501Z,2.80
2019-05-14T12:00:31.481Z,3.00
2019-05-14T12:03:02.562Z,2.90
2019-05-14T12:05:33.370Z,2.63
2019-05-14T12:08:04.357Z,2.60
2019-05-14T12:10:35.168Z,2.67
2019-05-14T12:13:08.553Z,2.70
2019-05-14T12:15:39.310Z,2.50
2019-05-14T12:18:10.645Z,2.70
2019-05-14T12:20:41.369Z,2.53
2019-05-14T12:23:12.364Z,2.67
2019-05-14T12:25:43.549Z,2.50
2019-05-14T12:28:14.463Z,2.83
2019-05-14T12:31:03.762Z,2.63
2019-05-14T12:33:34.582Z,2.77
2019-05-14T12:36:10.897Z,2.90
2019-05-14T12:38:42.853Z,2.17
2019-05-14T12:41:20.859Z,2.40
2019-05-14T12:44:00.291Z,2.20
2019-05-14T12:46:36.352Z,2.50
2019-05-14T12:49:11.685Z,2.30
2019-05-14T12:51:50.464Z,2.20
2019-05-14T12:54:24.223Z,2.40
2019-05-14T12:56:57.723Z,2.50
2019-05-14T12:59:38.059Z,2.60
2019-05-14T13:02:11.384Z,2.20
2019-05-14T13:04:44.159Z,2.30
2019-05-14T13:07:19.201Z,2.27
2019-05-14T13:09:53.506Z,2.30
2019-05-14T13:12:29.764Z,2.47
2019-05-14T13:15:08.583Z,2.20
2019-05-14T13:17:39.326Z,2.30
2019-05-14T13:20:14.003Z,2.20
2019-05-14T13:22:50.091Z,2.30
2019-05-14T13:25:21.391Z,2.30
2019-05-14T13:27:55.572Z,2.40
2019-05-14T13:30:33.476Z,2.57
2019-05-14T13:33:08.640Z,2.57
2019-05-14T13:35:41.905Z,2.37
2019-05-14T13:38:14.729Z,2.30
2019-05-14T13:40:49.821Z,2.23
2019-05-14T13:43:21.093Z,2.40
2019-05-14T13:45:51.858Z,2.30
2019-05-14T13:48:22.689Z,2.33
2019-05-14T13:50:53.429Z,2.20
2019-05-14T13:53:24.417Z,2.03
2019-05-14T13:55:57.491Z,2.40
2019-05-14T13:58:28.624Z,2.03
2019-05-14T14:00:59.962Z,2.20
2019-05-14T14:03:31.099Z,2.10
2019-05-14T14:06:02.803Z,2.23
2019-05-14T14:08:34.314Z,2.20
2019-05-14T14:11:05.337Z,2.30
2019-05-14T14:13:39.014Z,2.70
2019-05-14T14:16:14.789Z,2.10
2019-05-14T14:18:41.958Z,2.20
2019-05-14T14:21:12.932Z,2.10
2019-05-14T14:23:43.669Z,2.20
2019-05-14T14:26:14.657Z,2.23
2019-05-14T14:28:49.041Z,2.20
2019-05-14T14:31:19.203Z,2.10
2019-05-14T14:33:49.948Z,2.23
2019-05-14T14:36:20.939Z,2.17
2019-05-14T14:38:51.699Z,2.03
2019-05-14T14:41:23.243Z,2.53
2019-05-14T14:43:55.145Z,2.30
2019-05-14T14:46:28.580Z,1.90
2019-05-14T14:49:02.587Z,1.90
2019-05-14T14:51:31.867Z,2.10
2019-05-14T14:54:10.660Z,2.27
2019-05-14T14:56:37.963Z,2.10
2019-05-14T14:59:09.690Z,1.80
2019-05-14T15:01:40.762Z,2.10
2019-05-14T15:04:13.914Z,2.17
2019-05-14T15:06:44.820Z,2.20
2019-05-14T15:09:16.162Z,2.20
2019-05-14T15:11:48.955Z,1.93
2019-05-14T15:14:20.510Z,2.00
2019-05-14T15:16:51.212Z,2.27
2019-05-14T15:19:21.943Z,2.33
2019-05-14T15:21:52.728Z,2.30
2019-05-14T15:24:23.470Z,2.07
2019-05-14T15:26:54.348Z,2.07
2019-05-14T15:29:25.533Z,2.30
2019-05-14T15:31:59.061Z,2.00
2019-05-14T15:34:29.691Z,1.93
2019-05-14T15:37:00.854Z,2.00
2019-05-14T15:39:31.610Z,1.97
2019-05-14T15:42:05.115Z,2.20
2019-05-14T15:44:47.361Z,2.10
2019-05-14T15:47:11.543Z,2.10
2019-05-14T15:49:40.396Z,2.10
2019-05-14T15:52:11.290Z,2.10
2019-05-14T15:54:47.014Z,2.10
2019-05-14T15:57:14.580Z,2.00
2019-05-14T15:59:45.323Z,2.07
2019-05-14T16:02:19.870Z,2.30
2019-05-14T16:04:48.728Z,2.20
2019-05-14T16:07:19.483Z,2.00
2019-05-14T16:09:52.609Z,2.20
2019-05-14T16:12:23.606Z,2.23
2019-05-14T16:14:54.345Z,2.13
2019-05-14T16:17:26.887Z,2.07
2019-05-14T16:19:57.661Z,2.03
2019-05-14T16:22:29.283Z,2.30
2019-05-14T16:25:01.141Z,2.00
2019-05-14T16:27:33.173Z,1.80
2019-05-14T16:30:05.121Z,2.00
2019-05-14T16:32:39.145Z,1.90
2019-05-14T16:35:09.284Z,2.20
2019-05-14T16:37:40.322Z,1.90
2019-05-14T16:40:11.351Z,1.80
2019-05-14T16:42:42.325Z,1.90
2019-05-14T16:45:13.906Z,2.07
2019-05-14T16:47:45.143Z,1.80
2019-05-14T16:50:16.277Z,3.07
2019-05-14T16:52:49.258Z,2.00
2019-05-14T16:55:26.469Z,2.10
2019-05-14T16:57:52.467Z,2.30
2019-05-14T17:00:23.519Z,2.20
2019-05-14T17:02:54.269Z,2.17
2019-05-14T17:05:25.507Z,1.87
2019-05-14T17:07:58.734Z,2.20
2019-05-14T17:10:28.947Z,2.07
2019-05-14T17:13:01.842Z,1.90
2019-05-14T17:15:32.604Z,1.80
2019-05-14T17:18:03.641Z,1.83
2019-05-14T17:20:34.618Z,2.10
2019-05-14T17:23:05.668Z,1.80
2019-05-14T17:25:38.981Z,1.83
2019-05-14T17:28:09.324Z,1.80
2019-05-14T17:30:40.240Z,1.90
2019-05-14T17:33:10.976Z,1.80
2019-05-14T17:35:42.027Z,1.60
2019-05-14T17:38:12.779Z,1.80
2019-05-14T17:40:43.784Z,1.90
2019-05-14T17:43:15.287Z,1.90
2019-05-14T17:45:48.225Z,1.70
2019-05-14T17:48:19.041Z,1.67
2019-05-14T17:50:50.764Z,1.70
2019-05-14T17:53:21.505Z,1.40
2019-05-14T17:55:52.472Z,1.70
2019-05-14T17:58:24.186Z,1.67
2019-05-14T18:00:55.248Z,1.60
2019-05-14T18:03:25.998Z,1.70
2019-05-14T18:05:58.155Z,1.80
2019-05-14T18:08:30.115Z,1.70
2019-05-14T18:11:02.002Z,1.83
2019-05-14T18:13:33.408Z,1.80
2019-05-14T18:16:04.750Z,1.77
2019-05-14T18:18:35.607Z,2.00
2019-05-14T18:21:06.363Z,1.77
2019-05-14T18:23:41.297Z,1.90
2019-05-14T18:26:09.881Z,2.40
2019-05-14T18:28:40.902Z,2.20
2019-05-14T18:31:11.945Z,2.20
2019-05-14T18:33:42.999Z,1.80
2019-05-14T18:36:14.016Z,1.90
2019-05-14T18:38:45.489Z,1.90
2019-05-14T18:41:18.827Z,2.00
2019-05-14T18:43:49.562Z,2.10
2019-05-14T18:46:20.550Z,2.17
2019-05-14T18:48:51.518Z,2.10
2019-05-14T18:51:22.252Z,1.87
2019-05-14T18:53:53.240Z,2.17
2019-05-14T18:56:24.629Z,2.00
2019-05-14T18:58:56.360Z,2.07
2019-05-14T19:01:28.930Z,2.00
2019-05-14T19:04:00.967Z,1.93
2019-05-14T19:06:31.992Z,1.80
2019-05-14T19:09:04.643Z,1.70
2019-05-14T19:11:38.722Z,1.80
2019-05-14T19:14:10.087Z,1.83
2019-05-14T19:16:40.817Z,2.20
2019-05-14T19:19:11.563Z,2.03
2019-05-14T19:21:42.547Z,1.87
2019-05-14T19:24:13.316Z,1.90
2019-05-14T19:26:45.346Z,1.63
2019-05-14T19:29:18.497Z,1.70
2019-05-14T19:31:49.136Z,1.80
2019-05-14T19:34:19.883Z,1.67
2019-05-14T19:36:50.618Z,1.70
2019-05-14T19:39:21.611Z,1.80
2019-05-14T19:41:52.803Z,1.70
2019-05-14T19:44:23.579Z,1.63
2019-05-14T19:46:54.531Z,1.70
2019-05-14T19:49:25.534Z,1.60
2019-05-14T19:51:58.697Z,1.70
2019-05-14T19:54:29.322Z,1.70
2019-05-14T19:57:01.048Z,1.50
2019-05-14T19:59:32.254Z,1.67
2019-05-14T20:02:04.634Z,1.70
2019-05-14T20:04:35.644Z,1.87
2019-05-14T20:07:08.780Z,1.80
2019-05-14T20:09:39.060Z,1.67
2019-05-14T20:12:10.294Z,1.80
2019-05-14T20:14:41.019Z,1.60
2019-05-14T20:17:12.068Z,1.80
2019-05-14T20:19:42.796Z,1.60
2019-05-14T20:22:13.868Z,1.80
2019-05-14T20:24:44.925Z,1.90
2019-05-14T20:27:15.910Z,1.67
2019-05-14T20:29:48.695Z,1.70
2019-05-14T20:32:19.585Z,1.80
2019-05-14T20:34:50.560Z,1.50
2019-05-14T20:37:21.600Z,1.70
2019-05-14T20:39:52.320Z,1.77
2019-05-14T20:42:23.054Z,1.60
2019-05-14T20:44:53.771Z,1.60
2019-05-14T20:47:24.516Z,1.60
2019-05-14T20:49:55.247Z,1.70
2019-05-14T20:52:28.390Z,1.60
2019-05-14T20:54:59.408Z,1.57
2019-05-14T20:57:33.479Z,1.43
2019-05-14T21:00:02.994Z,1.70
2019-05-14T21:02:34.741Z,1.50
2019-05-14T21:05:13.006Z,1.77
2019-05-14T21:07:38.708Z,1.60
2019-05-14T21:10:10.732Z,1.63
2019-05-14T21:12:41.479Z,1.70
2019-05-14T21:15:12.375Z,1.80
2019-05-14T21:17:43.587Z,1.60
2019-05-14T21:20:15.689Z,1.60
2019-05-14T21:22:48.458Z,1.67
2019-05-14T21:25:19.548Z,1.60
2019-05-14T21:27:52.248Z,1.90
2019-05-14T21:30:23.438Z,1.70
2019-05-14T21:32:54.181Z,2.20
2019-05-14T21:35:25.149Z,1.90
2019-05-14T21:37:56.122Z,1.93
2019-05-14T21:40:31.668Z,2.10
2019-05-14T21:42:59.307Z,1.80
2019-05-14T21:45:30.527Z,1.80
2019-05-14T21:48:01.288Z,1.87
2019-05-14T21:50:32.241Z,1.73
2019-05-14T21:53:03.221Z,1.60
2019-05-14T21:55:33.969Z,1.90
2019-05-14T21:58:05.024Z,1.70
2019-05-14T22:00:42.171Z,1.70
2019-05-14T22:03:13.683Z,1.80
2019-05-14T22:05:44.488Z,1.80
2019-05-14T22:08:15.716Z,1.93
2019-05-14T22:10:48.725Z,1.70
2019-05-14T22:13:19.159Z,1.83
2019-05-14T22:15:50.891Z,1.80
2019-05-14T22:18:21.848Z,2.03
2019-05-14T22:20:52.596Z,1.90
2019-05-14T22:23:23.849Z,1.90
2019-05-14T22:25:58.125Z,2.00
2019-05-14T22:28:28.873Z,1.97
2019-05-14T22:30:59.608Z,1.97
2019-05-14T22:33:30.356Z,2.30
2019-05-14T22:36:01.083Z,2.03
2019-05-14T22:38:32.051Z,2.20
2019-05-14T22:41:02.855Z,1.97
2019-05-14T22:43:33.920Z,2.10
2019-05-14T22:46:04.652Z,2.07
2019-05-14T22:48:35.390Z,2.00
2019-05-14T22:51:08.516Z,1.90
2019-05-14T22:53:39.272Z,2.10
2019-05-14T22:56:10.735Z,1.87
2019-05-14T22:58:41.471Z,2.03
2019-05-14T23:01:15.128Z,2.10
2019-05-14T23:03:44.864Z,2.20
2019-05-14T23:06:15.816Z,2.20
2019-05-14T23:08:48.710Z,2.00
2019-05-14T23:11:19.702Z,2.10
2019-05-14T23:13:50.885Z,2.37
2019-05-14T23:16:33.396Z,1.90
2019-05-14T23:18:55.006Z,2.10
2019-05-14T23:21:28.217Z,2.23
2019-05-14T23:23:58.895Z,2.10
2019-05-14T23:26:29.848Z,2.00
2019-05-14T23:29:00.588Z,2.37
2019-05-14T23:31:32.287Z,2.30
2019-05-14T23:34:03.307Z,2.37
2019-05-14T23:36:33.997Z,2.23
2019-05-14T23:39:08.676Z,2.20
2019-05-14T23:41:39.583Z,2.20
2019-05-14T23:44:11.528Z,2.03
2019-05-14T23:46:42.251Z,2.30
2019-05-14T23:49:12.988Z,2.17
2019-05-14T23:51:44.211Z,2.20
2019-05-14T23:54:15.449Z,2.00
2019-05-14T23:56:48.743Z,2.07
2019-05-14T23:59:18.753Z,2.00
